Time;durP1;ratioP1;P1;durP2;ratioP2;P2;SDS_P1;SDS_P2;PMS_P1;PMS_P2;Temp;Humidity;BMP_temperature;BMP_pressure;BME280_temperature;BME280_humidity;BME280_pressure;Samples;Min_cycle;Max_cycle;Signal;HPM_P1;HPM_P2
2023/08/03 00:02:21;;;;;;;13.82;10.18;;;564.10;2432.00;;;;;;5101421;28;20032;-72
2023/08/03 00:04:46;;;;;;;15.88;11.27;;;588.80;2432.00;;;;;;5102428;28;20023;-71
2023/08/03 00:07:12;;;;;;;13.15;11.35;;;564.10;2432.00;;;;;;5098043;28;20028;-72
2023/08/03 00:09:39;;;;;;;12.98;11.18;;;564.10;2432.00;;;;;;5106550;28;20088;-73
2023/08/03 00:12:06;;;;;;;16.10;11.68;;;564.10;2432.00;;;;;;5100378;28;20036;-71
2023/08/03 00:14:32;;;;;;;13.23;11.27;;;564.10;2432.00;;;;;;5107170;28;20024;-73
2023/08/03 00:16:58;;;;;;;13.02;11.63;;;564.10;2432.00;;;;;;5098677;28;20028;-72
2023/08/03 00:19:23;;;;;;;15.13;11.95;;;564.00;2432.00;;;;;;5098870;28;20575;-72
2023/08/03 00:21:49;;;;;;;14.23;11.45;;;564.00;2432.00;;;;;;5098522;28;20126;-72
2023/08/03 00:24:15;;;;;;;15.88;12.85;;;564.00;2432.00;;;;;;5109256;28;20035;-72
2023/08/03 00:26:40;;;;;;;15.85;12.80;;;563.90;2432.00;;;;;;5096827;28;20027;-72
2023/08/03 00:29:06;;;;;;;15.73;12.65;;;563.90;2432.00;;;;;;5096752;28;20016;-71
2023/08/03 00:31:31;;;;;;;16.92;13.10;;;563.80;2432.00;;;;;;5103700;28;20028;-71
2023/08/03 00:33:57;;;;;;;16.90;13.05;;;563.80;2432.00;;;;;;5096385;28;20032;-71
2023/08/03 00:36:23;;;;;;;15.80;12.80;;;563.80;2432.00;;;;;;5096549;28;20020;-71
2023/08/03 00:38:48;;;;;;;16.33;13.00;;;563.80;2432.00;;;;;;5098877;28;20077;-72
2023/08/03 00:41:14;;;;;;;16.83;13.95;;;563.80;2432.00;;;;;;5099429;28;20036;-77
2023/08/03 00:43:40;;;;;;;16.98;14.10;;;563.80;2432.00;;;;;;5105478;28;20031;-72
2023/08/03 00:46:05;;;;;;;20.00;14.10;;;563.80;2432.00;;;;;;5097669;28;20098;-72
2023/08/03 00:48:31;;;;;;;15.70;13.27;;;563.80;2432.00;;;;;;5098065;28;20531;-72
2023/08/03 00:50:57;;;;;;;19.15;14.45;;;563.80;2432.00;;;;;;5103155;28;20440;-74
2023/08/03 00:53:23;;;;;;;18.33;14.20;;;563.80;2432.00;;;;;;5095830;28;20027;-71
2023/08/03 00:55:48;;;;;;;20.10;13.30;;;563.70;2432.00;;;;;;5099081;28;20049;-72
2023/08/03 00:58:14;;;;;;;16.95;14.90;;;563.70;2432.00;;;;;;5111087;28;20031;-73
2023/08/03 01:00:40;;;;;;;19.63;14.30;;;563.70;2432.00;;;;;;5103935;28;20024;-72
2023/08/03 01:03:05;;;;;;;16.70;14.35;;;563.60;2432.00;;;;;;5108782;28;20529;-72
2023/08/03 01:05:32;;;;;;;17.17;14.13;;;563.60;2432.00;;;;;;5108871;27;20016;-71
2023/08/03 01:07:58;;;;;;;17.00;14.02;;;563.60;2432.00;;;;;;5097228;28;20108;-72
2023/08/03 01:10:25;;;;;;;18.67;14.70;;;563.60;2432.00;;;;;;5104241;28;20081;-74
2023/08/03 01:12:51;;;;;;;17.63;14.40;;;563.60;2432.00;;;;;;5107036;28;20047;-72
2023/08/03 01:15:17;;;;;;;19.02;14.23;;;563.60;2432.00;;;;;;5104466;28;20040;-72
2023/08/03 01:17:43;;;;;;;19.15;14.75;;;563.50;2432.00;;;;;;5105925;28;20020;-72
2023/08/03 01:20:09;;;;;;;19.13;14.88;;;564.10;2432.00;;;;;;5098374;28;20031;-71
2023/08/03 01:22:41;;;;;;;19.33;14.50;;;563.70;2432.00;;;;;;5106420;28;20054;-72
2023/08/03 01:25:07;;;;;;;17.92;13.50;;;563.60;2432.00;;;;;;5097262;28;20024;-72
2023/08/03 01:27:33;;;;;;;18.00;14.32;;;563.60;2432.00;;;;;;5099519;28;20026;-72
2023/08/03 01:29:59;;;;;;;22.70;14.73;;;563.60;2432.00;;;;;;5101378;28;20028;-77
2023/08/03 01:32:24;;;;;;;17.63;13.95;;;563.60;2432.00;;;;;;5098653;28;20032;-72
2023/08/03 01:34:50;;;;;;;17.02;13.57;;;563.50;2432.00;;;;;;5093392;28;20024;-72
2023/08/03 01:37:18;;;;;;;15.35;12.85;;;563.50;2432.00;;;;;;5101284;28;20016;-72
2023/08/03 01:39:45;;;;;;;17.35;13.48;;;563.50;2432.00;;;;;;5097187;28;20049;-74
2023/08/03 01:42:14;;;;;;;18.75;13.82;;;563.50;2432.00;;;;;;5124751;27;20071;-71
2023/08/03 01:44:41;;;;;;;17.60;14.50;;;563.50;2432.00;;;;;;5100299;28;20025;-73
2023/08/03 01:47:07;;;;;;;21.20;13.38;;;563.40;2432.00;;;;;;5101681;28;20039;-71
2023/08/03 01:49:33;;;;;;;18.85;13.75;;;563.40;2432.00;;;;;;5105192;28;20051;-71
2023/08/03 01:51:59;;;;;;;16.77;13.07;;;563.30;2432.00;;;;;;5105353;28;20020;-71
2023/08/03 01:54:26;;;;;;;15.88;13.05;;;563.30;2432.00;;;;;;5107186;28;20028;-71
2023/08/03 01:56:55;;;;;;;17.40;13.07;;;563.20;2432.00;;;;;;5100850;28;20057;-71
2023/08/03 01:59:20;;;;;;;16.88;13.73;;;563.30;2432.00;;;;;;5108515;28;20035;-71
2023/08/03 02:01:46;;;;;;;18.60;14.07;;;563.30;2432.00;;;;;;5099691;28;20031;-72
2023/08/03 02:04:14;;;;;;;16.63;13.07;;;563.30;2432.00;;;;;;5100939;28;20097;-72
2023/08/03 02:06:40;;;;;;;20.40;13.73;;;563.30;2432.00;;;;;;5105272;28;20028;-77
2023/08/03 02:09:05;;;;;;;17.10;12.82;;;563.30;2432.00;;;;;;5106752;28;20561;-71
2023/08/03 02:11:33;;;;;;;17.77;12.85;;;563.20;2432.00;;;;;;5106323;28;20047;-72
2023/08/03 02:13:59;;;;;;;16.48;13.07;;;563.20;2432.00;;;;;;5104989;28;20032;-71
2023/08/03 02:16:25;;;;;;;16.50;12.85;;;563.30;2432.00;;;;;;5099740;28;20477;-71
2023/08/03 02:18:50;;;;;;;19.05;12.52;;;563.30;2432.00;;;;;;5100458;28;20098;-72
2023/08/03 02:21:16;;;;;;;15.52;12.32;;;563.20;2432.00;;;;;;5103616;28;20487;-72
2023/08/03 02:23:42;;;;;;;16.58;12.13;;;563.30;2432.00;;;;;;5106633;28;20392;-72
2023/08/03 02:26:08;;;;;;;20.23;12.23;;;563.30;2432.00;;;;;;5102298;28;20019;-72
2023/08/03 02:28:34;;;;;;;18.63;12.93;;;563.30;2432.00;;;;;;5107736;28;20028;-72
2023/08/03 02:31:00;;;;;;;15.50;11.15;;;563.30;2432.00;;;;;;5100754;28;20026;-72
2023/08/03 02:33:25;;;;;;;16.77;12.18;;;563.30;2432.00;;;;;;5100473;28;20480;-71
2023/08/03 02:35:51;;;;;;;15.23;11.73;;;563.30;2432.00;;;;;;5109072;28;20015;-71
2023/08/03 02:38:17;;;;;;;15.32;10.80;;;563.30;2432.00;;;;;;5099726;28;20093;-71
2023/08/03 02:40:42;;;;;;;19.52;12.80;;;563.30;2432.00;;;;;;5105482;28;20031;-72
2023/08/03 02:43:08;;;;;;;15.85;11.50;;;563.20;2432.00;;;;;;5107410;28;20035;-76
2023/08/03 02:45:34;;;;;;;13.68;10.15;;;538.50;2406.40;;;;;;5101813;28;20030;-72
2023/08/03 02:47:59;;;;;;;16.02;10.40;;;538.50;2406.40;;;;;;5107074;28;20030;-72
2023/08/03 02:50:25;;;;;;;13.73;10.77;;;563.30;2432.00;;;;;;5100624;28;20024;-73
2023/08/03 02:52:51;;;;;;;15.32;10.73;;;563.20;2432.00;;;;;;5100687;28;20095;-73
2023/08/03 02:55:16;;;;;;;16.27;11.15;;;538.50;2406.40;;;;;;5105377;28;20158;-73
2023/08/03 02:57:43;;;;;;;15.75;11.38;;;563.20;2432.00;;;;;;5100228;28;20036;-72
2023/08/03 03:00:09;;;;;;;16.15;11.02;;;563.30;2432.00;;;;;;5102464;28;20020;-72
2023/08/03 03:02:36;;;;;;;13.45;10.82;;;563.40;2432.00;;;;;;5102674;27;20040;-73
2023/08/03 03:05:02;;;;;;;15.13;10.60;;;563.30;2432.00;;;;;;5112846;28;20385;-71
2023/08/03 03:07:31;;;;;;;14.45;11.00;;;563.20;2432.00;;;;;;5105859;28;20024;-72
2023/08/03 03:09:57;;;;;;;14.85;11.63;;;538.50;2406.40;;;;;;5099276;28;20134;-72
2023/08/03 03:12:23;;;;;;;13.48;11.65;;;538.50;2406.40;;;;;;5105062;28;20036;-71
2023/08/03 03:14:49;;;;;;;16.85;11.88;;;563.20;2432.00;;;;;;5108582;28;20447;-71
2023/08/03 03:17:15;;;;;;;20.60;11.13;;;538.50;2406.40;;;;;;5104398;28;20027;-74
2023/08/03 03:19:41;;;;;;;15.73;11.07;;;538.50;2406.40;;;;;;5114617;28;20016;-72
2023/08/03 03:22:08;;;;;;;22.38;11.13;;;538.50;2406.40;;;;;;5115713;28;20092;-71
2023/08/03 03:24:33;;;;;;;13.88;10.63;;;538.50;2406.40;;;;;;5115889;28;20522;-72
2023/08/03 03:26:59;;;;;;;14.45;10.38;;;538.50;2406.40;;;;;;5116303;28;20028;-74
2023/08/03 03:29:25;;;;;;;15.23;11.77;;;538.50;2406.40;;;;;;5115834;28;20069;-73
2023/08/03 03:31:50;;;;;;;15.57;11.60;;;538.50;2406.40;;;;;;5115935;28;20396;-72
2023/08/03 03:34:16;;;;;;;12.60;10.10;;;538.50;2406.40;;;;;;5115782;28;20055;-72
2023/08/03 03:36:42;;;;;;;14.88;9.93;;;538.40;2406.40;;;;;;5115535;28;20032;-73
2023/08/03 03:39:07;;;;;;;17.38;11.18;;;563.20;2432.00;;;;;;5115488;28;20127;-74
2023/08/03 03:41:33;;;;;;;15.30;10.25;;;538.50;2406.40;;;;;;5115455;28;20028;-74
2023/08/03 03:43:59;;;;;;;18.25;11.07;;;538.50;2406.40;;;;;;5115843;27;20039;-73
2023/08/03 03:46:25;;;;;;;16.33;11.00;;;538.50;2406.40;;;;;;5115397;28;20050;-73
2023/08/03 03:48:50;;;;;;;15.10;10.75;;;538.50;2406.40;;;;;;5115331;28;20043;-73
2023/08/03 03:51:18;;;;;;;15.00;10.65;;;538.50;2406.40;;;;;;5115364;28;20019;-73
2023/08/03 03:53:44;;;;;;;12.35;10.27;;;563.20;2432.00;;;;;;5115452;28;20024;-78
2023/08/03 03:56:10;;;;;;;14.48;9.95;;;538.50;2406.40;;;;;;5115272;28;20031;-74
2023/08/03 03:58:36;;;;;;;15.98;10.70;;;538.50;2406.40;;;;;;5115273;28;20037;-72
2023/08/03 04:01:01;;;;;;;15.43;10.30;;;538.50;2406.40;;;;;;5115303;28;20350;-73
2023/08/03 04:03:27;;;;;;;13.55;10.23;;;538.50;2406.40;;;;;;5114577;28;20059;-76
2023/08/03 04:05:53;;;;;;;16.90;11.13;;;538.50;2406.40;;;;;;5114885;28;20027;-74
2023/08/03 04:08:19;;;;;;;14.25;10.68;;;538.50;2406.40;;;;;;5114982;28;20023;-71
2023/08/03 04:10:44;;;;;;;15.55;10.32;;;538.50;2406.40;;;;;;5114878;28;20054;-72
2023/08/03 04:13:10;;;;;;;21.13;11.20;;;538.50;2406.40;;;;;;5114951;28;20461;-73
2023/08/03 04:15:36;;;;;;;15.77;10.95;;;538.50;2406.40;;;;;;5115017;28;20028;-72
2023/08/03 04:18:02;;;;;;;14.32;10.40;;;563.20;2432.00;;;;;;5113512;28;20035;-78
2023/08/03 04:20:27;;;;;;;15.18;10.23;;;538.50;2406.40;;;;;;5114751;28;20465;-72
2023/08/03 04:22:53;;;;;;;14.75;10.25;;;538.50;2406.40;;;;;;5114739;28;20038;-76
2023/08/03 04:25:19;;;;;;;14.10;10.18;;;563.30;2432.00;;;;;;5114711;28;20023;-72
2023/08/03 04:27:44;;;;;;;13.35;10.32;;;563.20;2432.00;;;;;;5109276;28;20146;-72
2023/08/03 04:30:11;;;;;;;18.73;10.90;;;563.30;2432.00;;;;;;5104348;28;20084;-71
2023/08/03 04:32:37;;;;;;;16.13;10.48;;;563.30;2432.00;;;;;;5102070;28;20028;-71
2023/08/03 04:35:03;;;;;;;15.02;10.82;;;563.30;2432.00;;;;;;5100084;28;20024;-71
2023/08/03 04:37:29;;;;;;;15.88;10.07;;;563.40;2432.00;;;;;;5099878;28;20027;-72
2023/08/03 04:39:55;;;;;;;15.20;9.80;;;563.50;2432.00;;;;;;5105751;28;20035;-71
2023/08/03 04:42:21;;;;;;;17.30;10.75;;;563.50;2432.00;;;;;;5100835;28;20127;-72
2023/08/03 04:44:47;;;;;;;14.93;11.20;;;563.50;2432.00;;;;;;5097705;28;20024;-72
2023/08/03 04:47:13;;;;;;;15.25;10.90;;;563.50;2432.00;;;;;;5096012;28;20064;-73
2023/08/03 04:49:39;;;;;;;13.55;9.60;;;563.60;2432.00;;;;;;5103471;28;20078;-73
2023/08/03 04:52:05;;;;;;;14.52;10.18;;;563.70;2432.00;;;;;;5106990;28;20028;-72
2023/08/03 04:54:31;;;;;;;15.00;10.43;;;563.90;2432.00;;;;;;5106226;28;20023;-72
2023/08/03 04:56:56;;;;;;;12.07;9.63;;;563.90;2432.00;;;;;;5105233;28;20491;-72
2023/08/03 04:59:22;;;;;;;15.70;10.15;;;563.90;2432.00;;;;;;5097016;28;20081;-76
2023/08/03 05:01:48;;;;;;;15.02;10.55;;;564.00;2432.00;;;;;;5104397;28;20036;-72
2023/08/03 05:04:13;;;;;;;16.73;10.20;;;564.10;2432.00;;;;;;5104858;28;20027;-74
2023/08/03 05:06:39;;;;;;;14.77;9.18;;;588.80;2432.00;;;;;;5095456;28;20381;-71
2023/08/03 05:09:05;;;;;;;10.68;8.55;;;588.90;2432.00;;;;;;5094197;28;20078;-75
2023/08/03 05:11:31;;;;;;;14.75;8.68;;;589.00;2432.00;;;;;;5103210;28;20065;-73
2023/08/03 05:13:56;;;;;;;11.35;8.98;;;589.10;2432.00;;;;;;5099243;28;20024;-73
2023/08/03 05:16:24;;;;;;;10.88;8.35;;;589.30;2432.00;;;;;;5104167;28;20106;-76
2023/08/03 05:18:51;;;;;;;10.57;8.23;;;589.40;2432.00;;;;;;5101902;28;20103;-73
2023/08/03 05:21:17;;;;;;;11.68;9.10;;;589.50;2432.00;;;;;;5100267;28;20044;-73
2023/08/03 05:23:43;;;;;;;10.52;8.38;;;589.60;2432.00;;;;;;5099289;28;20039;-73
2023/08/03 05:26:09;;;;;;;10.88;8.07;;;589.60;2432.00;;;;;;5098550;28;20024;-72
2023/08/03 05:28:35;;;;;;;9.27;7.18;;;589.60;2432.00;;;;;;5101816;28;20132;-75
2023/08/03 05:31:00;;;;;;;10.18;8.00;;;589.70;2432.00;;;;;;5101239;28;20215;-76
2023/08/03 05:33:27;;;;;;;10.52;8.32;;;614.40;2432.00;;;;;;5098271;28;20025;-74
2023/08/03 05:35:53;;;;;;;8.55;7.38;;;614.50;2432.00;;;;;;5100469;28;20028;-75
2023/08/03 05:38:18;;;;;;;10.65;8.02;;;614.60;2432.00;;;;;;5104017;28;20102;-74
2023/08/03 05:40:44;;;;;;;13.50;7.47;;;614.70;2432.00;;;;;;5107320;28;20031;-74
2023/08/03 05:43:12;;;;;;;11.30;7.30;;;614.80;2432.00;;;;;;5102586;28;20089;-74
2023/08/03 05:45:48;;;;;;;11.27;7.40;;;614.80;2432.00;;;;;;5105959;28;20015;-73
2023/08/03 05:48:18;;;;;;;14.18;7.13;;;615.00;2432.00;;;;;;5105948;28;20032;-73
2023/08/03 05:50:49;;;;;;;11.63;7.82;;;615.20;2432.00;;;;;;5103954;28;20035;-73
2023/08/03 05:53:16;;;;;;;9.57;7.45;;;615.20;2432.00;;;;;;5099689;28;20024;-74
2023/08/03 05:55:42;;;;;;;9.13;7.72;;;615.20;2432.00;;;;;;5104445;28;20362;-74
2023/08/03 05:58:13;;;;;;;13.18;7.40;;;615.20;2432.00;;;;;;5102396;28;20028;-73
2023/08/03 06:00:47;;;;;;;9.73;7.43;;;615.30;2432.00;;;;;;5093260;28;20020;-74
2023/08/03 06:03:14;;;;;;;9.32;7.78;;;640.00;2432.00;;;;;;5093008;28;20028;-74
2023/08/03 06:05:48;;;;;;;10.10;7.88;;;640.00;2432.00;;;;;;5098395;28;20137;-74
2023/08/03 06:08:21;;;;;;;10.65;7.38;;;640.20;2432.00;;;;;;5106769;28;20030;-78
2023/08/03 06:10:53;;;;;;;11.40;7.97;;;640.40;2432.00;;;;;;5100523;28;20379;-84
2023/08/03 06:13:39;;;;;;;11.45;7.25;;;640.40;2432.00;;;;;;5097571;28;20075;-73
2023/08/03 06:16:10;;;;;;;17.98;13.60;;;640.60;2432.00;;;;;;5095781;28;20071;-74
2023/08/03 06:18:56;;;;;;;14.25;8.50;;;640.90;2432.00;;;;;;5099751;28;20084;-72
2023/08/03 06:21:24;;;;;;;9.93;7.10;;;665.60;2432.00;;;;;;5095276;28;20028;-75
2023/08/03 06:23:53;;;;;;;14.02;7.82;;;665.70;2432.00;;;;;;5099309;28;20100;-72
2023/08/03 06:26:19;;;;;;;34.83;24.27;;;665.90;2432.00;;;;;;5105291;28;20026;-72
2023/08/03 06:28:47;;;;;;;16.48;10.98;;;666.00;2432.00;;;;;;5109918;28;20076;-72
2023/08/03 06:31:24;;;;;;;9.95;7.70;;;665.90;2432.00;;;;;;5105087;28;20161;-72
2023/08/03 06:33:50;;;;;;;10.18;6.97;;;666.00;2432.00;;;;;;5107260;28;20035;-73
2023/08/03 06:36:23;;;;;;;14.13;7.93;;;666.10;2432.00;;;;;;5106865;28;20034;-72
2023/08/03 06:38:49;;;;;;;9.50;6.90;;;;;;;;;;5106797;28;20093;-73
2023/08/03 06:41:15;;;;;;;9.45;7.22;;;666.50;2432.00;;;;;;5104680;28;20036;-73
2023/08/03 06:43:41;;;;;;;14.07;8.18;;;691.40;2432.00;;;;;;5102849;28;20024;-74
2023/08/03 06:46:07;;;;;;;11.30;7.50;;;691.40;2432.00;;;;;;5120329;27;20032;-76
2023/08/03 06:48:33;;;;;;;10.20;6.72;;;691.60;2432.00;;;;;;5104903;28;20024;-73
2023/08/03 06:51:01;;;;;;;11.10;6.55;;;691.70;2432.00;;;;;;5108807;28;20116;-72
2023/08/03 06:53:28;;;;;;;11.30;6.93;;;691.90;2432.00;;;;;;5099939;28;20016;-72
2023/08/03 06:55:53;;;;;;;11.65;6.95;;;692.10;2432.00;;;;;;5100773;28;20023;-76
2023/08/03 06:58:19;;;;;;;7.95;5.80;;;716.80;2432.00;;;;;;5108428;28;20031;-73
2023/08/03 07:00:46;;;;;;;9.60;7.10;;;716.80;2432.00;;;;;;5108955;28;20059;-72
2023/08/03 07:03:12;;;;;;;9.55;7.57;;;717.20;2432.00;;;;;;5099433;28;20036;-71
2023/08/03 07:05:39;;;;;;;8.18;6.15;;;717.30;2432.00;;;;;;5099965;28;20465;-72
2023/08/03 07:08:04;;;;;;;8.65;6.15;;;717.40;2432.00;;;;;;5106795;28;20427;-74
2023/08/03 07:10:30;;;;;;;11.73;6.47;;;717.50;2432.00;;;;;;5100273;28;20072;-72
2023/08/03 07:12:56;;;;;;;7.78;5.88;;;717.40;2432.00;;;;;;5097572;28;20119;-72
2023/08/03 07:15:21;;;;;;;9.15;6.15;;;717.50;2432.00;;;;;;5099210;28;20089;-72
2023/08/03 07:17:47;;;;;;;10.07;5.97;;;717.70;2432.00;;;;;;5098994;28;20466;-73
2023/08/03 07:20:13;;;;;;;8.05;5.78;;;742.50;2432.00;;;;;;5105111;28;20074;-74
2023/08/03 07:22:39;;;;;;;12.68;6.03;;;742.60;2432.00;;;;;;5101010;28;20034;-72
2023/08/03 07:25:05;;;;;;;8.77;6.00;;;742.70;2432.00;;;;;;5101706;28;20028;-72
2023/08/03 07:27:32;;;;;;;8.60;5.13;;;742.90;2432.00;;;;;;5110127;28;20057;-71
2023/08/03 07:29:58;;;;;;;13.38;6.03;;;743.00;2432.00;;;;;;5107223;28;20051;-72
2023/08/03 07:32:24;;;;;;;7.00;5.55;;;743.10;2432.00;;;;;;5101204;28;20065;-73
2023/08/03 07:34:50;;;;;;;6.85;5.55;;;743.30;2432.00;;;;;;5101607;28;20112;-72
2023/08/03 07:37:15;;;;;;;12.32;8.60;;;768.10;2432.00;;;;;;5103507;28;20055;-74
2023/08/03 07:39:41;;;;;;;21.67;13.00;;;768.30;2432.00;;;;;;5097902;28;20031;-73
2023/08/03 07:42:07;;;;;;;32.67;15.98;;;768.50;2432.00;;;;;;5099572;28;20032;-71
2023/08/03 07:44:33;;;;;;;7.88;6.10;;;768.60;2380.80;;;;;;5104736;28;20020;-73
2023/08/03 07:46:58;;;;;;;25.23;14.50;;;768.90;2355.20;;;;;;5097231;28;20091;-72
2023/08/03 07:49:24;;;;;;;12.60;6.63;;;768.90;2406.40;;;;;;5097981;28;20028;-73
2023/08/03 07:51:50;;;;;;;9.93;7.25;;;768.90;2355.20;;;;;;5106756;28;20392;-74
2023/08/03 07:54:16;;;;;;;14.25;7.78;;;793.90;2227.20;;;;;;5102253;28;20032;-73
2023/08/03 07:56:42;;;;;;;16.30;8.75;;;794.00;2278.40;;;;;;5098092;28;20050;-73
2023/08/03 07:59:10;;;;;;;10.52;6.82;;;794.20;2304.00;;;;;;5101207;28;20099;-76
2023/08/03 08:01:36;;;;;;;14.63;8.48;;;794.50;2252.80;;;;;;5105751;28;20023;-74
2023/08/03 08:04:02;;;;;;;9.77;6.20;;;819.30;2099.20;;;;;;5103888;28;20067;-75
2023/08/03 08:06:28;;;;;;;11.63;5.95;;;819.30;2073.60;;;;;;5103503;28;20023;-74
2023/08/03 08:08:54;;;;;;;8.70;5.85;;;819.40;2099.20;;;;;;5102921;28;20428;-74
2023/08/03 08:11:21;;;;;;;5.88;4.82;;;819.70;2048.00;;;;;;5104371;28;20043;-74
2023/08/03 08:13:47;;;;;;;10.85;5.18;;;819.40;2073.60;;;;;;5105497;28;20023;-72
2023/08/03 08:16:14;;;;;;;9.13;5.20;;;819.50;2073.60;;;;;;5108202;28;20028;-74
2023/08/03 08:18:40;;;;;;;9.45;5.60;;;819.80;1971.20;;;;;;5100555;28;20027;-73
2023/08/03 08:21:09;;;;;;;8.63;4.68;;;819.80;1996.80;;;;;;5103171;28;20040;-73
2023/08/03 08:23:35;;;;;;;11.77;5.45;;;820.10;1920.00;;;;;;5099147;28;20043;-74
2023/08/03 08:26:02;;;;;;;7.72;4.95;;;819.90;1894.40;;;;;;5106211;28;20026;-72
2023/08/03 08:28:29;;;;;;;20.65;5.03;;;844.90;1920.00;;;;;;5098434;28;20070;-73
2023/08/03 08:30:54;;;;;;;8.50;4.75;;;845.20;1817.60;;;;;;5102993;28;20031;-74
2023/08/03 08:33:20;;;;;;;7.57;4.80;;;845.10;1843.20;;;;;;5096716;28;20027;-74
2023/08/03 08:35:49;;;;;;;9.73;4.97;;;845.30;1817.60;;;;;;5102244;28;20020;-72
2023/08/03 08:38:16;;;;;;;12.55;5.70;;;845.40;1792.00;;;;;;5094934;28;20036;-77
2023/08/03 08:40:44;;;;;;;8.20;4.50;;;845.50;1715.20;;;;;;5097704;28;20024;-74
2023/08/03 08:43:10;;;;;;;7.32;4.57;;;845.60;1638.40;;;;;;5101927;28;20034;-73
2023/08/03 08:45:37;;;;;;;10.32;4.18;;;870.50;1587.20;;;;;;5104450;28;20028;-74
2023/08/03 08:48:04;;;;;;;8.77;4.80;;;870.60;1484.80;;;;;;5096203;28;20024;-74
2023/08/03 08:50:30;;;;;;;6.35;4.38;;;870.80;1510.40;;;;;;5106588;28;20024;-73
2023/08/03 08:52:57;;;;;;;8.27;4.22;;;870.80;1510.40;;;;;;5102950;28;20496;-75
2023/08/03 08:55:28;;;;;;;7.35;4.18;;;870.70;1484.80;;;;;;5108917;28;20028;-73
2023/08/03 08:57:54;;;;;;;6.95;4.70;;;870.90;1510.40;;;;;;5100443;28;20098;-75
2023/08/03 09:00:23;;;;;;;7.50;4.43;;;870.90;1536.00;;;;;;5100070;28;20517;-73
2023/08/03 09:02:52;;;;;;;9.55;4.40;;;871.10;1561.60;;;;;;5104693;28;20058;-74
2023/08/03 09:05:20;;;;;;;7.45;4.20;;;871.30;1484.80;;;;;;5096961;28;20016;-73
2023/08/03 09:08:02;;;;;;;9.45;5.20;;;870.90;1484.80;;;;;;5097863;28;20032;-73
2023/08/03 09:10:29;;;;;;;10.10;4.25;;;871.10;1484.80;;;;;;5100950;28;20047;-74
2023/08/03 09:12:55;;;;;;;9.57;3.75;;;871.30;1408.00;;;;;;5100552;28;20656;-74
2023/08/03 09:15:39;;;;;;;5.97;4.07;;;871.30;1356.80;;;;;;5099904;28;20027;-73
2023/08/03 09:18:06;;;;;;;8.20;4.72;;;896.10;1408.00;;;;;;5100004;28;20024;-74
2023/08/03 09:20:32;;;;;;;6.22;3.80;;;;;;;;;;5105446;28;20387;-73
2023/08/03 09:22:59;;;;;;;11.95;4.43;;;896.90;1356.80;;;;;;5099008;28;20507;-74
2023/08/03 09:25:24;;;;;;;8.27;4.43;;;896.90;1331.20;;;;;;5100235;28;20103;-73
2023/08/03 09:27:53;;;;;;;5.68;3.85;;;896.60;1356.80;;;;;;5101982;28;20087;-73
2023/08/03 09:30:19;;;;;;;6.65;4.13;;;896.80;1331.20;;;;;;5101247;28;20020;-74
2023/08/03 09:32:45;;;;;;;9.02;4.40;;;896.90;1305.60;;;;;;5099627;28;20024;-73
2023/08/03 09:35:21;;;;;;;7.97;4.25;;;896.80;1305.60;;;;;;5104077;28;20024;-73
2023/08/03 09:37:49;;;;;;;6.97;4.32;;;896.90;1305.60;;;;;;5098135;28;20028;-74
2023/08/03 09:40:17;;;;;;;8.45;3.50;;;896.90;1280.00;;;;;;5098030;28;20023;-74
2023/08/03 09:42:44;;;;;;;9.95;4.25;;;922.00;1280.00;;;;;;5097477;28;20047;-74
2023/08/03 09:45:10;;;;;;;6.47;4.13;;;922.00;1280.00;;;;;;5105870;28;20032;-74
2023/08/03 09:47:36;;;;;;;7.07;3.95;;;921.90;1280.00;;;;;;5097449;28;20050;-74
2023/08/03 09:50:03;;;;;;;6.47;4.13;;;922.00;1280.00;;;;;;5096904;28;20032;-74
2023/08/03 09:52:30;;;;;;;11.70;4.13;;;921.90;1280.00;;;;;;5102304;28;20496;-73
2023/08/03 09:54:59;;;;;;;5.80;3.70;;;921.90;1280.00;;;;;;5094036;28;20065;-74
2023/08/03 09:57:29;;;;;;;6.22;3.80;;;922.30;1280.00;;;;;;5098613;28;20115;-74
2023/08/03 10:00:03;;;;;;;7.05;3.80;;;922.30;1280.00;;;;;;5097176;28;20028;-74
2023/08/03 10:02:34;;;;;;;6.15;4.38;;;922.40;1280.00;;;;;;5102745;28;20034;-74
2023/08/03 10:05:03;;;;;;;5.75;3.30;;;947.20;1254.40;;;;;;5103194;28;20081;-73
2023/08/03 10:07:36;;;;;;;8.80;3.92;;;922.40;1203.20;;;;;;5101724;28;20381;-74
2023/08/03 10:10:06;;;;;;;7.35;3.85;;;922.20;1228.80;;;;;;5101169;28;20135;-72
2023/08/03 10:12:38;;;;;;;7.63;3.75;;;922.50;1228.80;;;;;;5106306;28;20393;-75
2023/08/03 10:15:08;;;;;;;11.30;3.78;;;947.40;1203.20;;;;;;5104093;28;20039;-72
2023/08/03 10:17:35;;;;;;;6.72;4.53;;;973.00;1177.60;;;;;;5106816;28;20024;-73
2023/08/03 10:20:03;;;;;;;7.72;3.67;;;973.20;1152.00;;;;;;5107465;28;20036;-72
2023/08/03 10:22:29;;;;;;;5.72;3.33;;;973.30;1152.00;;;;;;5102416;28;20055;-73
2023/08/03 10:25:13;;;;;;;5.80;3.60;;;;;;;;;;5105128;28;20058;-73
2023/08/03 10:27:39;;;;;;;8.77;4.20;;;998.50;1100.80;;;;;;5107070;28;20024;-73
2023/08/03 10:30:05;;;;;;;7.68;4.35;;;973.40;1100.80;;;;;;5102476;28;20028;-73
2023/08/03 10:32:31;;;;;;;6.57;3.30;;;973.20;1126.40;;;;;;5105116;28;20477;-72
2023/08/03 10:35:36;;;;;;;7.38;3.75;;;973.40;1100.80;;;;;;5104989;28;20043;-72
2023/08/03 10:38:02;;;;;;;5.72;3.80;;;998.40;1126.40;;;;;;5099552;28;20081;-74
2023/08/03 10:40:28;;;;;;;7.60;3.85;;;;;;;;;;5101708;28;20021;-72
2023/08/03 10:43:08;;;;;;;8.48;3.83;;;998.80;1152.00;;;;;;5102242;28;20035;-74
2023/08/03 10:45:35;;;;;;;13.18;4.68;;;998.60;1126.40;;;;;;5103503;28;20032;-73
2023/08/03 10:48:29;;;;;;;8.48;3.80;;;998.50;1126.40;;;;;;5100981;28;20028;-73
2023/08/03 10:51:02;;;;;;;5.75;3.80;;;998.40;1152.00;;;;;;5099587;28;20017;-73
2023/08/03 10:53:29;;;;;;;6.13;3.40;;;998.60;1152.00;;;;;;5103610;28;20111;-74
2023/08/03 10:56:05;;;;;;;5.05;3.28;;;973.70;1152.00;;;;;;5103032;28;20016;-73
2023/08/03 10:58:31;;;;;;;6.78;3.83;;;;;;;;;;5106407;28;20027;-73
2023/08/03 11:00:57;;;;;;;6.10;3.45;;;999.20;1100.80;;;;;;5098964;28;20032;-74
2023/08/03 11:03:35;;;;;;;5.25;3.55;;;999.10;1100.80;;;;;;5101184;28;20036;-74
2023/08/03 11:06:00;;;;;;;5.07;3.78;;;998.80;1126.40;;;;;;5102639;28;20020;-73
2023/08/03 11:08:26;;;;;;;6.30;3.72;;;999.10;1100.80;;;;;;5101835;28;20375;-74
2023/08/03 11:10:52;;;;;;;8.65;3.88;;;998.80;1100.80;;;;;;5106143;28;20028;-73
2023/08/03 11:13:18;;;;;;;7.78;3.83;;;999.10;1100.80;;;;;;5097067;28;20496;-74
2023/08/03 11:15:45;;;;;;;5.47;3.60;;;999.10;1100.80;;;;;;5097685;28;20025;-74
2023/08/03 11:18:16;;;;;;;7.05;3.83;;;998.90;1100.80;;;;;;5137934;27;20085;-74
2023/08/03 11:20:42;;;;;;;7.25;3.80;;;998.80;1126.40;;;;;;5100770;28;20036;-73
2023/08/03 11:23:14;;;;;;;7.25;3.80;;;999.30;1100.80;;;;;;5107944;28;20039;-74
2023/08/03 11:25:40;;;;;;;8.90;3.80;;;998.90;1100.80;;;;;;5105133;28;20024;-73
2023/08/03 11:28:06;;;;;;;5.78;3.80;;;999.30;1075.20;;;;;;5105206;28;20051;-72
2023/08/03 11:30:32;;;;;;;6.00;4.50;;;999.10;1100.80;;;;;;5100285;28;20055;-72
2023/08/03 11:33:01;;;;;;;8.38;3.58;;;998.70;1126.40;;;;;;5102310;28;20393;-73
2023/08/03 11:35:28;;;;;;;7.05;4.10;;;999.10;1100.80;;;;;;5106228;28;20491;-73
2023/08/03 11:37:54;;;;;;;9.00;4.57;;;1024.00;1100.80;;;;;;5102560;28;20043;-74
2023/08/03 11:40:19;;;;;;;6.13;3.63;;;998.70;1126.40;;;;;;5100071;28;20393;-72
2023/08/03 11:42:45;;;;;;;7.18;3.80;;;998.80;1126.40;;;;;;5099727;28;20075;-73
2023/08/03 11:45:12;;;;;;;7.50;3.67;;;999.10;1126.40;;;;;;5105162;28;20031;-73
2023/08/03 11:47:46;;;;;;;5.50;3.90;;;999.10;1126.40;;;;;;5098433;28;20023;-73
2023/08/03 11:50:13;;;;;;;8.00;4.45;;;1024.40;1075.20;;;;;;5098808;28;20052;-72
2023/08/03 11:52:38;;;;;;;5.57;3.97;;;999.20;1126.40;;;;;;5105549;28;20015;-72
2023/08/03 11:55:04;;;;;;;11.13;4.63;;;998.90;1126.40;;;;;;5100649;28;20370;-72
2023/08/03 12:00:15;;;;;;;9.25;4.78;;;1024.40;1100.80;;;;;;5099179;28;20479;-73
2023/08/03 12:02:45;;;;;;;5.85;3.80;;;1024.40;1100.80;;;;;;5104540;28;20138;-72
2023/08/03 12:05:11;;;;;;;12.10;5.10;;;1024.30;1075.20;;;;;;5099733;28;20024;-72
2023/08/03 12:07:37;;;;;;;9.25;5.07;;;999.30;1126.40;;;;;;5099712;28;20031;-72
2023/08/03 12:10:13;;;;;;;6.40;3.63;;;1024.30;1075.20;;;;;;5098727;28;20059;-73
2023/08/03 12:12:43;;;;;;;5.70;4.22;;;1024.50;1075.20;;;;;;5103836;28;20023;-72